• Join FlightAware (Why Join?)
  • Login
  • US Flag 
09:22AM EDT


 

Airport Tracker/Info


-or-


 

Live Flight TrackerFlight Track Log ✈ N628C ✈ 01-May-2013 ✈ KGSP - KGYY

Flight Track Log - Related Links

Times and Time Zones

All times are in EDT time to prevent confusion due to time zone crossing. See the N628C flight status page for this flight to view local times or setup timezone preferences in your user account.

Time Position Orientation Groundspeed Altitude Reporting Facility
EDT Latitude Longitude Course Direction KTS MPH feet Rate Location/Type
04:08PM 35.1264 -82.3764 321° Northwest  Level FlightAware Approximate
04:09PM 35.1651 -82.4071 329° Northwest  Level FlightAware Approximate
04:10PM 35.2045 -82.4366 329° Northwest  Level FlightAware Approximate
04:11PM 35.2439 -82.4661 329° Northwest  Level FlightAware Approximate
04:12PM 35.2832 -82.4957 329° Northwest  Level FlightAware Approximate
04:13PM 35.3226 -82.5253 328° Northwest  Level FlightAware Approximate
04:14PM 35.3626 -82.5535 331° Northwest  Level FlightAware Approximate
04:15PM 35.4028 -82.5814 331° Northwest  Level FlightAware Approximate
04:16PM 35.4431 -82.6092 331° Northwest  Level FlightAware Approximate
04:17PM 35.4884 -82.6385 332° Northwest  Level FlightAware Approximate
04:18PM 35.5337 -82.6678 332° Northwest  Level FlightAware Approximate
04:19PM 35.5790 -82.6972 332° Northwest  Level FlightAware Approximate
04:20PM 35.6236 -82.7284 330° Northwest  Level FlightAware Approximate
04:21PM 35.6680 -82.7597 330° Northwest  Level FlightAware Approximate
04:22PM 35.7125 -82.7911 330° Northwest  Level FlightAware Approximate
04:23PM 35.7569 -82.8225 330° Northwest  Level FlightAware Approximate
04:24PM 35.8013 -82.8540 330° Northwest  Level FlightAware Approximate
04:25PM 35.8457 -82.8854 330° Northwest  Level FlightAware Approximate
04:25PM 35.8168 -82.8296 330° Northwest 181 208 9,700  Level FlightAware ADS-B
04:25PM 35.8239 -82.8347 330° Northwest 181 208 9,700  Level FlightAware ADS-B
04:25PM 35.8349 -82.8426 330° Northwest 182 209 9,700  Level FlightAware ADS-B
04:26PM 35.8460 -82.8506 330° Northwest 183 211 9,700  Level FlightAware ADS-B
04:26PM 35.8580 -82.8593 330° Northwest 184 212 9,700  Level FlightAware ADS-B
04:26PM 35.8690 -82.8671 330° Northwest 182 209 9,700  Level FlightAware ADS-B
04:26PM 35.8804 -82.8751 330° Northwest 181 208 9,700  Level FlightAware ADS-B
04:27PM 35.9047 -82.8926 330° Northwest 181 208 9,700  Level FlightAware ADS-B
04:27PM 35.9152 -82.9002 330° Northwest 181 208 9,700  Level FlightAware ADS-B
04:28PM 35.9275 -82.9091 330° Northwest 181 208 9,700  Level FlightAware ADS-B
04:28PM 35.9393 -82.9178 329° Northwest 182 209 9,700  Level FlightAware ADS-B
04:28PM 35.9527 -82.9274 330° Northwest 182 209 9,700  Level FlightAware ADS-B
04:28PM 35.9636 -82.9354 329° Northwest 183 211 9,700  Level FlightAware ADS-B
04:29PM 35.9749 -82.9438 329° Northwest 183 211 9,700  Level FlightAware ADS-B
04:29PM 35.9833 -82.9500 329° Northwest 182 209 9,700  Level FlightAware ADS-B
04:29PM 35.9945 -82.9580 330° Northwest 183 211 9,700  Level FlightAware ADS-B
04:29PM 36.0060 -82.9663 330° Northwest 183 211 9,700  Level FlightAware ADS-B
04:30PM 36.0130 -82.9713 330° Northwest 183 211 9,700  Level FlightAware ADS-B
04:30PM 36.0241 -82.9792 330° Northwest 184 212 9,700  Level FlightAware ADS-B
04:30PM 36.0353 -82.9872 330° Northwest 183 211 9,700  Level FlightAware ADS-B
04:30PM 36.0474 -82.9957 330° Northwest 184 212 9,700  Level FlightAware ADS-B
04:31PM 36.0585 -83.0037 330° Northwest 184 212 9,700  Level FlightAware ADS-B
04:31PM 36.0697 -83.0117 330° Northwest 184 212 9,700  Level FlightAware ADS-B
04:31PM 36.0809 -83.0199 329° Northwest 184 212 9,700  Level FlightAware ADS-B
04:31PM 36.0922 -83.0282 329° Northwest 185 213 9,700  Level FlightAware ADS-B
04:32PM 36.1035 -83.0365 329° Northwest 185 213 9,700  Level FlightAware ADS-B
04:32PM 36.1149 -83.0449 329° Northwest 185 213 9,700  Level FlightAware ADS-B
04:32PM 36.1207 -83.0490 330° Northwest 186 214 9,700  Level FlightAware ADS-B
04:32PM 36.1322 -83.0574 329° Northwest 186 214 9,700  Level FlightAware ADS-B
04:32PM 36.1414 -83.0641 330° Northwest 185 213 9,700  Level FlightAware ADS-B
04:33PM 36.1538 -83.0728 330° Northwest 185 213 9,700  Level FlightAware ADS-B
04:33PM 36.1636 -83.0799 330° Northwest 185 213 9,700  Level FlightAware ADS-B
04:33PM 36.1753 -83.0885 329° Northwest 186 214 9,700  Level FlightAware ADS-B
04:33PM 36.1854 -83.0960 329° Northwest 187 215 9,700  Level FlightAware ADS-B
04:34PM 36.1924 -83.1012 329° Northwest 187 215 9,700  Level FlightAware ADS-B
04:34PM 36.2056 -83.1109 329° Northwest 186 214 9,700  Level FlightAware ADS-B
04:34PM 36.2169 -83.1192 329° Northwest 186 214 9,700  Level FlightAware ADS-B
04:34PM 36.2281 -83.1276 329° Northwest 186 214 9,700  Level FlightAware ADS-B
04:35PM 36.2349 -83.1327 329° Northwest 185 213 9,700  Level FlightAware ADS-B
04:35PM 36.2469 -83.1414 330° Northwest 185 213 9,700  Level FlightAware ADS-B
04:35PM 36.2543 -83.1466 330° Northwest 184 212 9,700  Level FlightAware ADS-B
04:35PM 36.2598 -83.1504 331° Northwest 184 212 9,700  Level FlightAware ADS-B
04:35PM 36.2677 -83.1560 330° Northwest 185 213 9,700  Level FlightAware ADS-B
04:36PM 36.2788 -83.1638 330° Northwest 184 212 9,700  Level FlightAware ADS-B
04:36PM 36.2905 -83.1722 330° Northwest 184 212 9,700  Level FlightAware ADS-B
04:36PM 36.2986 -83.1782 329° Northwest 184 212 9,700  Level FlightAware ADS-B
04:36PM 36.3100 -83.1867 329° Northwest 185 213 9,700  Level FlightAware ADS-B
04:36PM 36.3167 -83.1916 329° Northwest 185 213 9,700  Level FlightAware ADS-B
04:37PM 36.3240 -83.1971 329° Northwest 184 212 9,700  Level FlightAware ADS-B
04:37PM 36.3313 -83.2024 330° Northwest 185 213 9,700  Level FlightAware ADS-B
04:37PM 36.3405 -83.2095 328° Northwest 184 212 9,700  Level FlightAware ADS-B
04:37PM 36.3515 -83.2177 329° Northwest 184 212 9,700  Level FlightAware ADS-B
04:37PM 36.3627 -83.2259 329° Northwest 184 212 9,700  Level FlightAware ADS-B
04:38PM 36.3739 -83.2341 329° Northwest 184 212 9,700  Level FlightAware ADS-B
04:38PM 36.3850 -83.2421 330° Northwest 184 212 9,700  Level FlightAware ADS-B
04:38PM 36.3966 -83.2505 330° Northwest 184 212 9,700  Level FlightAware ADS-B
04:38PM 36.4082 -83.2591 329° Northwest 182 209 9,700  Level FlightAware ADS-B
04:39PM 36.4194 -83.2673 329° Northwest 182 209 9,700  Level FlightAware ADS-B
04:39PM 36.4298 -83.2748 330° Northwest 182 209 9,700  Level FlightAware ADS-B
04:39PM 36.4411 -83.2831 329° Northwest 182 209 9,700  Level FlightAware ADS-B
04:39PM 36.4525 -83.2914 330° Northwest 183 211 9,700  Level FlightAware ADS-B
04:40PM 36.4636 -83.2995 330° Northwest 183 211 9,700  Level FlightAware ADS-B
04:40PM 36.4747 -83.3076 330° Northwest 183 211 9,700  Level FlightAware ADS-B
04:40PM 36.4823 -83.3132 329° Northwest 182 209 9,700 420 Level FlightAware ADS-B
04:40PM 36.4934 -83.3213 330° Northwest 175 201 9,900 360 Climbing FlightAware ADS-B
04:41PM 36.5039 -83.3291 329° Northwest 175 201 9,900  Level FlightAware ADS-B
04:41PM 36.5124 -83.3355 329° Northwest 178 205 9,900 -360 Level FlightAware ADS-B
04:41PM 36.5176 -83.3393 330° Northwest 182 209 9,800 -300 Descending FlightAware ADS-B
04:41PM 36.5289 -83.3471 331° Northwest 183 211 9,800  Level FlightAware ADS-B
04:41PM 36.5365 -83.3523 331° Northwest 184 212 9,800  Level FlightAware ADS-B
04:42PM 36.5418 -83.3561 330° Northwest 185 213 9,800  Level FlightAware ADS-B
04:42PM 36.5503 -83.3623 330° Northwest 185 213 9,800  Level FlightAware ADS-B
04:42PM 36.5616 -83.3706 329° Northwest 184 212 9,800  Level FlightAware ADS-B
04:42PM 36.5726 -83.3788 329° Northwest 184 212 9,800  Level FlightAware ADS-B
04:42PM 36.5838 -83.3871 329° Northwest 184 212 9,800  Level FlightAware ADS-B
04:43PM 36.5950 -83.3954 329° Northwest 184 212 9,800  Level FlightAware ADS-B
04:43PM 36.6042 -83.4023 329° Northwest 184 212 9,800  Level FlightAware ADS-B
04:43PM 36.6141 -83.4097 329° Northwest 185 213 9,800  Level FlightAware ADS-B
04:43PM 36.6252 -83.4178 330° Northwest 186 214 9,800  Level FlightAware ADS-B
04:44PM 36.6366 -83.4261 330° Northwest 186 214 9,800  Level FlightAware ADS-B
04:44PM 36.6480 -83.4345 329° Northwest 186 214 9,800  Level FlightAware ADS-B
04:44PM 36.6589 -83.4424 330° Northwest 187 215 9,800  Level FlightAware ADS-B
04:44PM 36.6713 -83.4516 329° Northwest 188 216 9,800  Level FlightAware ADS-B
04:45PM 36.6830 -83.4603 329° Northwest 187 215 9,800  Level FlightAware ADS-B
04:45PM 36.6941 -83.4686 329° Northwest 185 213 9,800  Level FlightAware ADS-B
04:45PM 36.7054 -83.4768 330° Northwest 184 212 9,800  Level FlightAware ADS-B
04:45PM 36.7168 -83.4851 330° Northwest 185 213 9,800  Level FlightAware ADS-B
04:46PM 36.7280 -83.4934 329° Northwest 184 212 9,800  Level FlightAware ADS-B
04:46PM 36.7395 -83.5019 329° Northwest 184 212 9,800  Level FlightAware ADS-B
04:46PM 36.7517 -83.5111 329° Northwest 185 213 9,800  Level FlightAware ADS-B
04:46PM 36.7600 -83.5173 329° Northwest 186 214 9,800  Level FlightAware ADS-B
04:47PM 36.7718 -83.5261 329° Northwest 187 215 9,800  Level FlightAware ADS-B
04:47PM 36.7844 -83.5354 329° Northwest 187 215 9,800  Level FlightAware ADS-B
04:47PM 36.7965 -83.5444 329° Northwest 188 216 9,800  Level FlightAware ADS-B
04:48PM 36.8096 -83.5540 330° Northwest 187 215 9,800  Level FlightAware ADS-B
04:48PM 36.8215 -83.5628 329° Northwest 187 215 9,800  Level FlightAware ADS-B
04:48PM 36.8339 -83.5721 329° Northwest 186 214 9,800  Level FlightAware ADS-B
04:48PM 36.8498 -83.5839 329° Northwest 186 214 9,800  Level FlightAware ADS-B
04:49PM 36.8632 -83.5940 329° Northwest 188 216 9,800  Level FlightAware ADS-B
04:49PM 36.8762 -83.6034 330° Northwest 190 219 9,800  Level FlightAware ADS-B
04:49PM 36.8886 -83.6125 330° Northwest 191 220 9,800  Level FlightAware ADS-B
04:50PM 36.9003 -83.6211 330° Northwest 189 217 9,800  Level FlightAware ADS-B
04:50PM 36.9128 -83.6303 330° Northwest 187 215 9,800  Level FlightAware ADS-B
04:50PM 36.9347 -83.6467 329° Northwest 185 213 9,800  Level FlightAware ADS-B
04:51PM 36.9426 -83.6525 330° Northwest 183 211 9,800  Level FlightAware ADS-B
04:51PM 36.9554 -83.6621 329° Northwest 181 208 9,800  Level FlightAware ADS-B
04:51PM 36.9717 -83.6742 329° Northwest 180 207 9,800  Level FlightAware ADS-B
04:51PM 36.9826 -83.6823 329° Northwest 181 208 9,800  Level FlightAware ADS-B
04:52PM 36.9944 -83.6909 330° Northwest 180 207 9,800 180 Level FlightAware ADS-B
04:52PM 37.0054 -83.6990 330° Northwest 181 208 9,900 180 Climbing FlightAware ADS-B
04:53PM 37.0508 -83.7342 330° Northwest 182 209 10,100  Climbing Indianapolis Center
04:54PM 37.0925 -83.7708 325° Northwest 182 209 10,000  Descending Indianapolis Center
04:55PM 37.1358 -83.8072 326° Northwest 185 213 10,100  Climbing Indianapolis Center
04:56PM 37.1800 -83.8406 329° Northwest 185 213 10,100  Level Indianapolis Center
04:57PM 37.2247 -83.8744 329° Northwest 187 215 10,100 -60 Level Indianapolis Center
04:58PM 37.2786 -83.9144 329° Northwest 191 220 10,000 -60 Descending Indianapolis Center
04:59PM 37.3247 -83.9486 329° Northwest 192 221 10,000  Level Indianapolis Center
05:00PM 37.3692 -83.9811 330° Northwest 186 214 10,000  Level Indianapolis Center
05:01PM 37.4142 -84.0144 330° Northwest 187 215 10,100  Climbing Indianapolis Center
05:02PM 37.4589 -84.0494 328° Northwest 189 217 10,000  Descending Indianapolis Center
05:03PM 37.5022 -84.0831 328° Northwest 184 212 10,100  Climbing Indianapolis Center
05:05PM 37.5533 -84.1208 330° Northwest 183 211 10,000  Descending Indianapolis Center
05:06PM 37.5958 -84.1581 325° Northwest 184 212 10,100  Climbing Indianapolis Center
05:07PM 37.6397 -84.1942 327° Northwest 188 216 10,100 -60 Level Indianapolis Center
05:09PM 37.7303 -84.2600 330° Northwest 186 214 10,000 -60 Descending Indianapolis Center
05:10PM 37.7819 -84.2992 329° Northwest 186 214 10,000 60 Level Indianapolis Center
05:11PM 37.8275 -84.3317 331° Northwest 187 215 10,200  Climbing Indianapolis Center
05:12PM 37.8733 -84.3631 332° Northwest 188 216 10,100 -120 Descending Indianapolis Center
05:13PM 37.9172 -84.4033 324° Northwest 193 222 10,000 -60 Descending Indianapolis Center
05:14PM 37.9639 -84.4333 333° Northwest 188 216 10,000  Level Indianapolis Center
05:15PM 38.0139 -84.4528 343° North 188 216 10,000  Level Indianapolis Center
05:16PM 38.0742 -84.4656 351° North 186 214 10,000  Level Indianapolis Center
05:17PM 38.1267 -84.4747 352° North 189 217 10,000  Level Indianapolis Center
05:18PM 38.1769 -84.4856 350° North 184 212 10,000  Level Indianapolis Center
05:19PM 38.2272 -84.4961 351° North 183 211 10,000  Level Indianapolis Center
05:20PM 38.2792 -84.5178 342° North 190 219 10,000  Level Indianapolis Center
05:21PM 38.3314 -84.5533 332° Northwest 187 215 10,000  Level Indianapolis Center
05:22PM 38.3800 -84.5792 337° Northwest 186 214 10,000  Level Indianapolis Center
05:23PM 38.4236 -84.6161 326° Northwest 189 217 10,000  Level Indianapolis Center
05:24PM 38.4675 -84.6514 328° Northwest 187 215 10,000  Level Indianapolis Center
05:25PM 38.5111 -84.6872 327° Northwest 186 214 10,000  Level Indianapolis Center
05:26PM 38.5556 -84.7219 329° Northwest 187 215 10,000  Level Indianapolis Center
05:27PM 38.6056 -84.7608 329° Northwest 182 209 10,000 -60 Level Indianapolis Center
05:33PM 38.8780 -84.9580 329° Northwest 188 216 9,800 -60 Descending FlightAware
05:34PM 38.8910 -84.9680 329° Northwest 188 216 9,800  Level FlightAware
05:34PM 38.9100 -84.9820 330° Northwest 188 216 9,800  Level FlightAware
05:35PM 38.9290 -84.9960 330° Northwest 188 216 9,800 120 Level FlightAware
05:35PM 38.9833 -85.0333 330° Northwest 186 214 10,000 60 Climbing Cincinnati TRACON
05:36PM 39.0167 -85.0667 322° Northwest 156 180 10,000  Level Cincinnati TRACON
05:37PM 39.0667 -85.1000 333° Northwest 189 217 10,000  Level Cincinnati TRACON
05:38PM 39.0661 -85.1078 265° West 188 216 10,000  Level Indianapolis Center
05:39PM 39.1183 -85.1531 326° Northwest 193 222 10,000  Level Indianapolis Center
05:40PM 39.1622 -85.1919 326° Northwest 190 219 10,000  Level Indianapolis Center
05:41PM 39.2072 -85.2319 325° Northwest 194 223 10,000  Level Indianapolis Center
05:42PM 39.2533 -85.2717 326° Northwest 198 228 10,000  Level Indianapolis Center
05:43PM 39.2989 -85.3108 326° Northwest 195 224 10,000  Level Indianapolis Center
05:44PM 39.3428 -85.3492 326° Northwest 191 220 10,000  Level Indianapolis Center
05:45PM 39.3956 -85.3947 326° Northwest 193 222 10,000  Level Indianapolis Center
05:46PM 39.4400 -85.4342 326° Northwest 193 222 10,000  Level Indianapolis Center
05:47PM 39.4858 -85.4736 326° Northwest 195 224 10,000  Level Indianapolis Center
05:48PM 39.5311 -85.5142 325° Northwest 196 226 10,000  Level Indianapolis Center
05:49PM 39.5764 -85.5528 327° Northwest 195 224 10,000  Level Indianapolis Center
05:50PM 39.6197 -85.5931 324° Northwest 192 221 10,000  Level Indianapolis Center
05:51PM 39.6728 -85.6381 327° Northwest 195 224 10,000  Level Indianapolis Center
05:52PM 39.7183 -85.6786 326° Northwest 198 228 10,000  Level Indianapolis Center
05:53PM 39.7633 -85.7181 326° Northwest 196 226 10,000  Level Indianapolis Center
05:54PM 39.8119 -85.7531 331° Northwest 197 227 10,000  Level Indianapolis Center
05:55PM 39.8569 -85.7911 327° Northwest 194 223 10,100  Climbing Indianapolis Center
05:56PM 39.9011 -85.8314 325° Northwest 193 222 10,000 -60 Descending Indianapolis Center
05:57PM 39.9519 -85.8769 326° Northwest 190 219 10,000  Level Indianapolis Center
05:58PM 39.9953 -85.9161 325° Northwest 188 216 10,000  Level Indianapolis Center
05:59PM 40.0389 -85.9533 327° Northwest 188 216 10,000  Level Indianapolis Center
06:00PM 40.0825 -85.9917 326° Northwest 188 216 10,000  Level Indianapolis Center
06:01PM 40.1244 -86.0292 326° Northwest 183 211 10,000  Level Indianapolis Center
06:02PM 40.1600 -86.0608 326° Northwest 185 213 10,000  Level Chicago Center
06:03PM 40.2033 -86.0994 326° Northwest 188 216 10,000  Level Chicago Center
06:04PM 40.2186 -86.1147 323° Northwest 187 215 10,000 60 Level Chicago Center
06:04PM 40.2528 -86.1450 326° Northwest 186 214 10,100 60 Climbing Chicago Center
06:05PM 40.2611 -86.1553 317° Northwest 186 214 10,100 -120 Level Chicago Center
06:05PM 40.2967 -86.1819 330° Northwest 186 214 10,000 -120 Descending Chicago Center
06:06PM 40.3100 -86.1986 316° Northwest 184 212 10,000  Level Chicago Center
06:06PM 40.3378 -86.2214 328° Northwest 184 212 10,000  Level Chicago Center
06:07PM 40.3503 -86.2364 318° Northwest 187 215 10,000  Level Chicago Center
06:07PM 40.3811 -86.2603 329° Northwest 185 213 10,000  Level Chicago Center
06:08PM 40.3950 -86.2772 317° Northwest 186 214 10,000 -60 Level Chicago Center
06:13PM 40.6240 -86.4820 317° Northwest 185 213 9,800 -60 Descending FlightAware
06:14PM 40.6470 -86.5040 324° Northwest 185 213 9,800 60 Level FlightAware
06:14PM 40.6660 -86.5210 326° Northwest 184 212 9,900  Climbing FlightAware
06:15PM 40.6880 -86.5400 327° Northwest 185 213 9,800 -120 Descending FlightAware
06:15PM 40.7090 -86.5600 324° Northwest 185 213 9,800  Level FlightAware
06:15PM 40.7260 -86.5750 326° Northwest 184 212 9,800 120 Level FlightAware
06:16PM 40.7430 -86.5900 326° Northwest 183 211 9,900 60 Climbing FlightAware
06:16PM 40.7680 -86.6130 325° Northwest 185 213 9,900 -120 Level FlightAware
06:17PM 40.7840 -86.6280 325° Northwest 187 215 9,800 -120 Descending FlightAware
06:17PM 40.8080 -86.6500 325° Northwest 185 213 9,800  Level FlightAware
06:18PM 40.8230 -86.6640 325° Northwest 184 212 9,800 120 Level FlightAware
06:18PM 40.8440 -86.6830 326° Northwest 183 211 9,900  Climbing FlightAware
06:19PM 40.8660 -86.7040 324° Northwest 185 213 9,800  Descending FlightAware
06:19PM 40.8840 -86.7200 326° Northwest 186 214 9,900  Climbing FlightAware
06:20PM 40.9070 -86.7420 324° Northwest 186 214 9,800 -120 Descending FlightAware
06:20PM 40.9240 -86.7570 326° Northwest 185 213 9,800 60 Level FlightAware
06:21PM 40.9450 -86.7770 324° Northwest 186 214 9,900  Climbing FlightAware
06:21PM 40.9630 -86.7940 325° Northwest 186 214 9,800 -120 Descending FlightAware
06:22PM 40.9840 -86.8130 326° Northwest 187 215 9,800  Level FlightAware
06:22PM 40.9930 -86.8210 326° Northwest 188 216 9,800 120 Level FlightAware
06:22PM 41.0140 -86.8400 326° Northwest 188 216 9,900  Climbing FlightAware
06:23PM 41.0340 -86.8590 324° Northwest 188 216 9,800 -120 Descending FlightAware
06:23PM 41.0510 -86.8750 325° Northwest 186 214 9,800  Level FlightAware
06:24PM 41.0730 -86.8950 326° Northwest 185 213 9,800  Level FlightAware
06:24PM 41.0930 -86.9140 324° Northwest 182 209 9,800  Level FlightAware
06:24PM 41.1010 -86.9210 327° Northwest 181 208 9,800  Level FlightAware
06:25PM 41.1170 -86.9350 327° Northwest 181 208 9,800  Level FlightAware
06:25PM 41.1340 -86.9510 325° Northwest 181 208 9,800 -600 Level FlightAware
06:26PM 41.1640 -86.9800 324° Northwest 200 230 9,200 -1,080 Descending FlightAware
06:26PM 41.1730 -86.9880 326° Northwest 203 234 9,000 -900 Descending FlightAware
06:26PM 41.1960 -87.0100 324° Northwest 208 239 8,600 -840 Descending FlightAware
06:27PM 41.2190 -87.0320 324° Northwest 205 236 8,200 -780 Descending FlightAware
06:27PM 41.2370 -87.0520 320° Northwest 204 235 7,900 -780 Descending FlightAware
06:28PM 41.2610 -87.0750 324° Northwest 201 231 7,500 -780 Descending FlightAware
06:28PM 41.2790 -87.0920 325° Northwest 202 232 7,200 -780 Descending FlightAware
06:29PM 41.3030 -87.1150 324° Northwest 201 231 6,800 -540 Descending FlightAware
06:29PM 41.3310 -87.1420 324° Northwest 201 231 6,600 -780 Descending FlightAware
06:30PM 41.3550 -87.1640 325° Northwest 197 227 5,900 -1,200 Descending FlightAware
06:30PM 41.3620 -87.1700 327° Northwest 196 226 5,800 -780 Descending FlightAware
06:31PM 41.3860 -87.1930 324° Northwest 196 226 5,400 -840 Descending FlightAware
06:31PM 41.3950 -87.2020 323° Northwest 195 224 5,200 -900 Descending FlightAware
06:31PM 41.4150 -87.2200 326° Northwest 195 224 4,800 -900 Descending FlightAware
06:32PM 41.4350 -87.2390 325° Northwest 194 223 4,400 -900 Descending FlightAware
06:32PM 41.4560 -87.2600 323° Northwest 190 219 3,900 -900 Descending FlightAware
06:33PM 41.4780 -87.2800 326° Northwest 189 217 3,600 -780 Descending FlightAware
06:33PM 41.4870 -87.2890 323° Northwest 188 216 3,400 -840 Descending FlightAware
06:33PM 41.5090 -87.3090 326° Northwest 186 214 3,000 -780 Descending FlightAware
06:34PM 41.5150 -87.3150 323° Northwest 187 215 2,900 -540 Descending FlightAware
06:34PM 41.5310 -87.3310 323° Northwest 189 217 2,700 -420 Descending FlightAware
06:35PM 41.5560 -87.3620 317° Northwest 185 213 2,500 -780 Descending FlightAware
06:35PM 41.5833 -87.4000 317° Northwest 187 215 1,800 -780 Descending Chicago TRACON
06:36PM 41.6167 -87.4333 323° Northwest 144 166 1,300 -360 Descending Chicago TRACON
06:37PM 41.6397 -87.4392 349° North 157 181 1,100 -240 Descending Chicago Center
06:39PM 41.6163 -87.4128 143° Southeast  Level Estimated